createdAt,value
2022-12-08T00:04:22.121Z,4.35
2022-12-08T00:09:41.299Z,3.78
2022-12-08T00:14:50.327Z,3.88
2022-12-08T00:19:54.456Z,3.90
2022-12-08T00:24:57.892Z,3.67
2022-12-08T00:30:01.447Z,4.45
2022-12-08T00:35:05.942Z,4.80
2022-12-08T00:40:10.585Z,3.78
2022-12-08T00:50:18.768Z,3.80
2022-12-08T00:55:22.855Z,3.97
2022-12-08T01:00:27.956Z,4.20
2022-12-08T01:05:32.193Z,4.37
2022-12-08T01:10:40.374Z,4.45
2022-12-08T01:15:44.520Z,4.38
2022-12-08T01:20:48.710Z,4.25
2022-12-08T01:25:52.901Z,4.45
2022-12-08T01:30:57.483Z,4.68
2022-12-08T01:36:05.807Z,4.28
2022-12-08T01:41:10.611Z,3.80
2022-12-08T01:51:19.144Z,4.28
2022-12-08T02:01:35.355Z,4.00
2022-12-08T02:06:43.838Z,4.03
2022-12-08T02:11:47.828Z,3.60
2022-12-08T02:17:03.540Z,4.03
2022-12-08T02:22:25.835Z,4.47
2022-12-08T02:27:59.851Z,3.92
2022-12-08T02:33:40.494Z,4.72
2022-12-08T02:39:16.077Z,4.93
2022-12-08T02:44:44.572Z,4.47
2022-12-08T02:49:49.043Z,4.88
2022-12-08T02:55:02.690Z,4.65
2022-12-08T03:00:19.746Z,3.60
2022-12-08T03:05:42.050Z,3.97
2022-12-08T03:10:59.632Z,4.20
2022-12-08T03:16:08.066Z,4.00
2022-12-08T03:21:12.889Z,4.65
2022-12-08T03:26:32.523Z,4.32
2022-12-08T03:31:40.837Z,4.00
2022-12-08T03:36:46.952Z,4.78
2022-12-08T03:41:51.204Z,4.57
2022-12-08T03:46:55.730Z,3.90
2022-12-08T03:51:59.858Z,3.80
2022-12-08T03:57:04.107Z,4.60
2022-12-08T04:02:07.602Z,4.90
2022-12-08T04:07:11.367Z,4.88
2022-12-08T04:12:14.663Z,4.80
2022-12-08T04:17:18.571Z,3.78
2022-12-08T04:22:22.599Z,4.40
2022-12-08T04:27:27.088Z,3.95
2022-12-08T04:32:32.357Z,4.85
2022-12-08T04:37:36.487Z,4.65
2022-12-08T04:42:39.689Z,4.23
2022-12-08T04:47:44.038Z,4.43
2022-12-08T04:52:47.796Z,4.27
2022-12-08T04:57:52.069Z,4.57
2022-12-08T05:02:56.025Z,4.53
2022-12-08T05:08:00.305Z,5.00
2022-12-08T05:13:04.414Z,4.60
2022-12-08T05:18:08.014Z,4.55
2022-12-08T05:23:10.574Z,4.93
2022-12-08T05:28:40.260Z,5.50
2022-12-08T05:33:36.927Z,6.47
2022-12-08T05:38:40.097Z,6.95
2022-12-08T05:43:43.174Z,4.78
2022-12-08T05:48:47.160Z,5.22
2022-12-08T05:53:52.320Z,5.40
2022-12-08T05:58:56.252Z,6.70
2022-12-08T06:04:02.567Z,5.20
2022-12-08T06:09:07.203Z,8.95
2022-12-08T06:14:13.154Z,10.38
2022-12-08T06:19:16.681Z,8.68
2022-12-08T06:24:19.309Z,9.90
2022-12-08T06:29:21.898Z,7.65
2022-12-08T06:34:25.093Z,7.93
2022-12-08T06:39:29.089Z,16.25
2022-12-08T06:44:32.709Z,7.55
2022-12-08T06:49:36.949Z,8.20
2022-12-08T06:54:40.537Z,8.07
2022-12-08T06:59:43.047Z,10.00
2022-12-08T07:04:46.857Z,6.07
2022-12-08T07:09:50.778Z,11.53
2022-12-08T07:14:54.410Z,9.80
2022-12-08T07:19:58.229Z,7.88
2022-12-08T07:25:02.131Z,11.67
2022-12-08T07:30:06.760Z,10.48
2022-12-08T07:35:11.224Z,9.13
2022-12-08T07:40:14.487Z,10.43
2022-12-08T07:45:17.220Z,8.82
2022-12-08T07:50:20.116Z,7.45
2022-12-08T07:55:22.812Z,7.90
2022-12-08T08:00:25.819Z,9.30
2022-12-08T08:05:29.838Z,8.27
2022-12-08T08:10:33.695Z,9.43
2022-12-08T08:15:37.811Z,8.33
2022-12-08T08:20:42.397Z,7.78
2022-12-08T08:25:45.034Z,7.60
2022-12-08T08:30:49.216Z,6.65
2022-12-08T08:35:53.230Z,8.02
2022-12-08T08:40:56.590Z,8.40
2022-12-08T08:46:01.359Z,8.43
2022-12-08T08:51:11.554Z,8.85
2022-12-08T08:56:21.528Z,8.77
2022-12-08T09:01:27.766Z,7.20
2022-12-08T09:06:31.967Z,9.50
2022-12-08T09:11:35.714Z,11.77
2022-12-08T09:16:42.243Z,10.13
2022-12-08T09:21:47.918Z,7.40
2022-12-08T09:26:51.460Z,9.65
2022-12-08T09:31:56.531Z,10.95
2022-12-08T09:37:00.135Z,11.85
2022-12-08T09:42:09.868Z,11.18
2022-12-08T09:47:48.867Z,9.38
2022-12-08T09:53:14.401Z,7.70
2022-12-08T09:58:53.858Z,7.45
2022-12-08T10:03:57.229Z,8.38
2022-12-08T10:09:21.121Z,8.98
2022-12-08T10:14:49.998Z,7.95
2022-12-08T10:20:04.014Z,7.57
2022-12-08T10:25:27.237Z,10.73
2022-12-08T10:30:32.165Z,8.60
2022-12-08T10:35:49.457Z,8.43
2022-12-08T10:40:58.748Z,8.10
2022-12-08T10:46:21.041Z,9.10
2022-12-08T10:51:35.629Z,6.85
2022-12-08T10:56:39.263Z,7.35
2022-12-08T11:01:46.952Z,7.00
2022-12-08T11:06:51.628Z,7.68
2022-12-08T11:12:06.686Z,8.10
2022-12-08T11:17:25.029Z,6.22
2022-12-08T11:22:51.030Z,6.15
2022-12-08T11:27:59.038Z,5.38
2022-12-08T11:33:19.564Z,6.03
2022-12-08T11:38:25.468Z,6.72
2022-12-08T11:43:34.458Z,6.18
2022-12-08T11:49:05.993Z,5.95
2022-12-08T11:54:15.890Z,6.18
2022-12-08T11:59:29.780Z,6.32
2022-12-08T12:05:11.736Z,7.43
2022-12-08T12:10:29.519Z,6.38
2022-12-08T12:16:49.214Z,5.70
2022-12-08T12:21:58.318Z,6.07
2022-12-08T12:27:07.448Z,6.93
2022-12-08T12:32:11.910Z,7.07
2022-12-08T12:37:22.531Z,6.60
2022-12-08T12:42:40.723Z,6.45
2022-12-08T12:48:01.075Z,6.78
2022-12-08T12:53:19.519Z,6.85
2022-12-08T12:58:30.905Z,6.32
2022-12-08T13:03:34.578Z,8.35
2022-12-08T13:08:37.191Z,8.20
2022-12-08T13:14:04.818Z,7.18
2022-12-08T13:19:16.179Z,7.82
2022-12-08T13:24:24.751Z,8.07
2022-12-08T13:29:27.537Z,7.20
2022-12-08T13:35:00.141Z,9.05
2022-12-08T13:40:16.351Z,10.23
2022-12-08T13:45:52.963Z,8.15
2022-12-08T14:01:52.102Z,13.05
2022-12-08T14:07:01.634Z,9.50
2022-12-08T14:12:23.085Z,7.75
2022-12-08T14:17:25.847Z,6.70
2022-12-08T14:22:40.892Z,5.65
2022-12-08T14:27:45.799Z,15.75
2022-12-08T14:38:05.276Z,9.60
2022-12-08T14:43:09.136Z,7.68
2022-12-08T14:48:39.389Z,8.70
2022-12-08T14:54:06.613Z,6.72
2022-12-08T14:59:30.309Z,6.45
2022-12-08T15:04:33.021Z,5.88
2022-12-08T15:09:37.039Z,5.75
2022-12-08T15:15:14.604Z,6.37
2022-12-08T15:20:34.744Z,6.55
2022-12-08T15:25:38.510Z,6.10
2022-12-08T15:30:41.090Z,5.65
2022-12-08T15:35:45.370Z,6.50
2022-12-08T15:40:55.356Z,6.82
2022-12-08T15:46:00.058Z,7.30
2022-12-08T15:51:03.136Z,7.75
2022-12-08T16:01:32.865Z,7.03
2022-12-08T16:12:18.201Z,13.18
2022-12-08T16:17:21.826Z,30.27
2022-12-08T16:22:54.576Z,36.53
2022-12-08T16:28:02.807Z,39.92
2022-12-08T16:33:09.547Z,44.08
2022-12-08T16:38:16.461Z,21.98
2022-12-08T16:43:19.018Z,16.23
2022-12-08T16:48:22.548Z,13.93
2022-12-08T16:53:25.268Z,10.68
2022-12-08T16:58:27.959Z,10.32
2022-12-08T17:03:31.566Z,7.13
2022-12-08T17:08:34.499Z,7.85
2022-12-08T17:13:40.525Z,8.00
2022-12-08T17:18:43.326Z,9.02
2022-12-08T17:23:47.578Z,14.33
2022-12-08T17:29:05.812Z,14.27
2022-12-08T17:34:10.433Z,13.00
2022-12-08T17:39:18.249Z,13.77
2022-12-08T17:44:22.035Z,12.88
2022-12-08T17:49:29.642Z,10.95
2022-12-08T17:54:32.745Z,9.80
2022-12-08T17:59:35.486Z,7.38
2022-12-08T18:04:38.319Z,6.18
2022-12-08T18:09:41.942Z,6.15
2022-12-08T18:14:46.190Z,8.23
2022-12-08T18:19:48.721Z,5.43
2022-12-08T18:24:51.339Z,6.55
2022-12-08T18:29:53.942Z,6.95
2022-12-08T18:34:56.545Z,7.22
2022-12-08T18:39:59.174Z,6.95
2022-12-08T18:45:04.426Z,7.47
2022-12-08T18:50:09.672Z,7.50
2022-12-08T18:55:12.293Z,6.75
2022-12-08T19:00:18.207Z,11.10
2022-12-08T19:05:20.960Z,7.65
2022-12-08T19:10:23.622Z,6.95
2022-12-08T19:15:26.292Z,5.63
2022-12-08T19:20:29.262Z,4.35
2022-12-08T19:25:31.866Z,4.13
2022-12-08T19:30:35.206Z,4.22
2022-12-08T19:35:37.909Z,4.38
2022-12-08T19:48:07.206Z,3.00
2022-12-08T19:58:40.418Z,3.58
2022-12-08T20:03:43.483Z,4.15
2022-12-08T20:08:50.626Z,3.45
2022-12-08T20:13:53.672Z,2.92
2022-12-08T20:18:56.432Z,2.50
2022-12-08T20:23:59.017Z,2.70
2022-12-08T20:29:01.533Z,2.75
2022-12-08T20:34:04.423Z,5.00
2022-12-08T20:39:18.044Z,6.07
2022-12-08T20:44:20.661Z,3.90
2022-12-08T20:49:23.656Z,4.75
2022-12-08T20:54:26.148Z,3.92
2022-12-08T20:59:29.212Z,4.75
2022-12-08T21:04:31.982Z,4.35
2022-12-08T21:09:35.323Z,6.63
2022-12-08T21:14:38.208Z,8.40
2022-12-08T21:19:40.866Z,9.48
2022-12-08T21:24:43.895Z,4.72
2022-12-08T21:29:46.651Z,4.47
2022-12-08T21:34:49.217Z,3.63
2022-12-08T21:39:51.939Z,1.88
2022-12-08T21:44:54.581Z,1.73
2022-12-08T21:49:57.391Z,1.10
2022-12-08T21:55:00.036Z,1.45
2022-12-08T22:00:03.412Z,1.98
2022-12-08T22:05:07.489Z,2.03
2022-12-08T22:10:12.368Z,2.03
2022-12-08T22:15:16.967Z,2.88
2022-12-08T22:20:21.318Z,2.45
2022-12-08T22:25:29.895Z,2.67
2022-12-08T22:30:38.821Z,2.47
2022-12-08T22:35:42.012Z,2.95
2022-12-08T22:40:47.084Z,2.35
2022-12-08T22:45:51.859Z,3.17
2022-12-08T22:51:02.723Z,2.20
2022-12-08T22:56:08.288Z,2.67
2022-12-08T23:01:27.436Z,2.17
2022-12-08T23:12:44.422Z,1.83
2022-12-08T23:17:47.052Z,2.10
2022-12-08T23:22:49.756Z,1.90
2022-12-08T23:27:52.910Z,1.48
2022-12-08T23:32:56.609Z,1.20
2022-12-08T23:37:59.314Z,1.43
2022-12-08T23:43:02.035Z,1.30
2022-12-08T23:48:04.666Z,1.38
2022-12-08T23:53:07.193Z,1.63
2022-12-08T23:58:09.864Z,1.40
